createdAt,value
2022-07-27T00:01:58.312Z,99.90
2022-07-27T00:04:25.277Z,99.90
2022-07-27T00:06:52.281Z,99.90
2022-07-27T00:09:19.601Z,99.90
2022-07-27T00:11:47.282Z,99.90
2022-07-27T00:14:14.969Z,99.90
2022-07-27T00:16:41.976Z,99.90
2022-07-27T00:19:09.951Z,99.90
2022-07-27T00:21:38.707Z,99.90
2022-07-27T00:24:12.539Z,99.90
2022-07-27T00:26:39.487Z,99.90
2022-07-27T00:29:07.685Z,99.90
2022-07-27T00:31:34.681Z,99.90
2022-07-27T00:34:01.705Z,99.90
2022-07-27T00:36:28.722Z,99.90
2022-07-27T00:38:55.626Z,99.90
2022-07-27T00:41:22.666Z,99.90
2022-07-27T00:43:57.079Z,99.90
2022-07-27T00:46:27.396Z,99.90
2022-07-27T00:48:54.560Z,99.90
2022-07-27T00:51:24.414Z,99.90
2022-07-27T00:53:55.021Z,99.90
2022-07-27T00:56:23.762Z,99.90
2022-07-27T00:58:53.790Z,99.90
2022-07-27T01:01:21.012Z,99.90
2022-07-27T01:03:48.480Z,99.90
2022-07-27T01:06:16.794Z,99.90
2022-07-27T01:09:18.132Z,99.90
2022-07-27T01:11:48.061Z,99.90
2022-07-27T01:14:17.257Z,99.90
2022-07-27T01:16:44.773Z,99.90
2022-07-27T01:19:15.056Z,99.90
2022-07-27T01:21:42.302Z,99.90
2022-07-27T01:24:10.663Z,99.90
2022-07-27T01:26:39.667Z,99.90
2022-07-27T01:29:06.590Z,99.90
2022-07-27T01:31:33.825Z,99.90
2022-07-27T01:34:01.427Z,99.90
2022-07-27T01:36:28.616Z,99.90
2022-07-27T01:38:56.618Z,99.90
2022-07-27T01:41:24.326Z,99.90
2022-07-27T01:43:51.455Z,99.90
2022-07-27T01:46:18.467Z,99.90
2022-07-27T01:48:45.520Z,99.90
2022-07-27T01:51:12.483Z,99.90
2022-07-27T01:53:39.683Z,99.90
2022-07-27T01:56:13.830Z,99.90
2022-07-27T01:58:43.256Z,99.90
2022-07-27T02:01:10.692Z,99.90
2022-07-27T02:03:37.978Z,99.90
2022-07-27T02:06:06.211Z,99.90
2022-07-27T02:08:34.203Z,99.90
2022-07-27T02:11:20.955Z,99.90
2022-07-27T02:13:49.684Z,99.90
2022-07-27T02:16:19.388Z,99.90
2022-07-27T02:18:48.568Z,99.90
2022-07-27T02:21:16.473Z,99.90
2022-07-27T02:23:45.364Z,99.90
2022-07-27T02:26:12.730Z,99.90
2022-07-27T02:28:39.616Z,99.90
2022-07-27T02:31:06.654Z,99.90
2022-07-27T02:33:33.899Z,99.90
2022-07-27T02:36:01.343Z,99.90
2022-07-27T02:38:28.496Z,99.90
2022-07-27T02:40:55.446Z,99.90
2022-07-27T02:43:23.177Z,99.90
2022-07-27T02:45:51.341Z,99.90
2022-07-27T02:48:18.355Z,99.90
2022-07-27T02:50:45.383Z,99.90
2022-07-27T02:53:12.335Z,99.90
2022-07-27T02:55:39.380Z,99.90
2022-07-27T02:58:06.476Z,99.90
2022-07-27T03:00:34.087Z,99.90
2022-07-27T03:03:01.208Z,99.90
2022-07-27T03:05:28.237Z,99.90
2022-07-27T03:07:55.110Z,99.90
2022-07-27T03:10:22.037Z,99.90
2022-07-27T03:12:48.979Z,99.90
2022-07-27T03:15:15.913Z,99.90
2022-07-27T03:17:42.966Z,99.90
2022-07-27T03:20:14.493Z,99.90
2022-07-27T03:22:42.376Z,99.90
2022-07-27T03:25:10.497Z,99.90
2022-07-27T03:27:37.423Z,99.90
2022-07-27T03:30:06.920Z,99.90
2022-07-27T03:32:33.864Z,99.90
2022-07-27T03:35:00.947Z,99.90
2022-07-27T03:37:27.905Z,99.90
2022-07-27T03:39:54.900Z,99.90
2022-07-27T03:42:21.950Z,99.90
2022-07-27T03:44:48.889Z,99.90
2022-07-27T03:47:15.780Z,99.90
2022-07-27T03:49:42.673Z,99.90
2022-07-27T03:52:13.062Z,99.90
2022-07-27T03:54:44.199Z,99.90
2022-07-27T03:57:11.092Z,99.90
2022-07-27T03:59:38.021Z,99.90
2022-07-27T04:02:06.612Z,99.90
2022-07-27T04:04:33.532Z,99.90
2022-07-27T04:07:00.935Z,99.90
2022-07-27T04:09:28.441Z,99.90
2022-07-27T04:11:58.200Z,99.90
2022-07-27T04:14:26.476Z,99.90
2022-07-27T04:16:53.523Z,99.90
2022-07-27T04:19:20.485Z,99.90
2022-07-27T04:21:47.788Z,99.90
2022-07-27T04:24:14.796Z,99.90
2022-07-27T04:26:41.761Z,99.90
2022-07-27T04:29:08.892Z,99.90
2022-07-27T04:31:36.076Z,99.90
2022-07-27T04:34:02.966Z,99.90
2022-07-27T04:36:29.842Z,99.90
2022-07-27T04:38:59.104Z,99.90
2022-07-27T04:41:30.450Z,99.90
2022-07-27T04:43:59.042Z,99.90
2022-07-27T04:46:29.451Z,99.90
2022-07-27T04:48:57.087Z,99.90
2022-07-27T04:51:24.169Z,99.90
2022-07-27T04:53:53.686Z,99.90
2022-07-27T04:56:29.011Z,99.90
2022-07-27T04:58:56.560Z,99.90
2022-07-27T05:01:23.784Z,99.90
2022-07-27T05:03:52.067Z,99.90
2022-07-27T05:06:19.241Z,99.90
2022-07-27T05:08:46.135Z,99.90
2022-07-27T05:11:13.100Z,99.90
2022-07-27T05:13:40.744Z,99.90
2022-07-27T05:16:10.720Z,99.90
2022-07-27T05:18:41.075Z,99.70
2022-07-27T05:21:09.602Z,99.40
2022-07-27T05:23:37.089Z,99.10
2022-07-27T05:26:04.887Z,99.10
2022-07-27T05:28:32.218Z,98.90
2022-07-27T05:30:59.311Z,98.50
2022-07-27T05:33:26.262Z,98.20
2022-07-27T05:35:55.383Z,98.00
2022-07-27T05:38:22.518Z,97.50
2022-07-27T05:40:49.516Z,97.00
2022-07-27T05:43:16.479Z,96.70
2022-07-27T05:45:43.508Z,97.10
2022-07-27T05:48:10.617Z,97.20
2022-07-27T05:50:37.635Z,97.20
2022-07-27T05:53:04.726Z,96.90
2022-07-27T05:55:31.818Z,96.50
2022-07-27T05:57:58.790Z,96.10
2022-07-27T06:00:25.832Z,95.90
2022-07-27T06:02:52.863Z,95.50
2022-07-27T06:05:19.755Z,95.30
2022-07-27T06:07:58.994Z,94.80
2022-07-27T06:10:32.132Z,94.40
2022-07-27T06:13:01.570Z,93.80
2022-07-27T06:15:28.562Z,93.50
2022-07-27T06:17:55.628Z,93.10
2022-07-27T06:20:25.428Z,93.20
2022-07-27T06:22:58.959Z,92.90
2022-07-27T06:25:34.118Z,92.60
2022-07-27T06:28:05.177Z,92.60
2022-07-27T06:30:33.210Z,92.40
2022-07-27T06:33:00.765Z,92.30
2022-07-27T06:35:27.983Z,91.90
2022-07-27T06:37:54.862Z,91.80
2022-07-27T06:40:22.364Z,91.60
2022-07-27T06:42:49.434Z,91.20
2022-07-27T06:45:16.609Z,90.70
2022-07-27T06:47:49.067Z,89.70
2022-07-27T06:50:20.222Z,89.50
2022-07-27T06:52:49.396Z,88.30
2022-07-27T06:55:16.644Z,88.30
2022-07-27T06:57:43.724Z,88.40
2022-07-27T07:00:12.479Z,87.10
2022-07-27T07:02:59.923Z,86.40
2022-07-27T07:05:27.445Z,86.00
2022-07-27T07:07:55.253Z,86.40
2022-07-27T07:10:25.729Z,85.10
2022-07-27T07:12:57.668Z,84.40
2022-07-27T07:15:26.700Z,83.20
2022-07-27T07:17:54.161Z,83.10
2022-07-27T07:20:22.248Z,83.10
2022-07-27T07:22:49.480Z,83.50
2022-07-27T07:25:17.037Z,82.80
2022-07-27T07:27:43.938Z,82.60
2022-07-27T07:30:11.835Z,82.50
2022-07-27T07:32:38.827Z,81.10
2022-07-27T07:35:06.996Z,80.40
2022-07-27T07:37:34.326Z,78.10
2022-07-27T07:40:25.202Z,77.80
2022-07-27T07:43:02.416Z,77.40
2022-07-27T07:45:35.328Z,77.10
2022-07-27T07:48:02.330Z,76.30
2022-07-27T07:50:29.261Z,75.70
2022-07-27T07:52:56.717Z,75.50
2022-07-27T07:55:28.457Z,75.00
2022-07-27T07:57:57.633Z,73.30
2022-07-27T08:03:51.131Z,70.70
2022-07-27T08:06:19.401Z,71.20
2022-07-27T08:08:46.269Z,69.90
2022-07-27T08:11:13.678Z,68.50
2022-07-27T08:13:40.826Z,68.70
2022-07-27T08:16:07.806Z,67.60
2022-07-27T08:18:34.963Z,66.40
2022-07-27T08:21:01.957Z,66.90
2022-07-27T08:23:29.034Z,68.00
2022-07-27T08:25:55.942Z,68.60
2022-07-27T08:28:23.224Z,69.40
2022-07-27T08:30:50.192Z,69.10
2022-07-27T08:33:17.685Z,68.40
2022-07-27T08:35:46.399Z,68.10
2022-07-27T08:38:13.436Z,67.30
2022-07-27T08:40:45.602Z,65.80
2022-07-27T08:43:21.822Z,65.20
2022-07-27T08:46:00.820Z,64.80
2022-07-27T08:48:31.624Z,63.30
2022-07-27T08:50:59.303Z,63.20
2022-07-27T08:53:26.343Z,63.20
2022-07-27T08:56:03.196Z,61.90
2022-07-27T08:58:30.359Z,62.20
2022-07-27T09:00:57.885Z,62.60
2022-07-27T09:03:24.942Z,62.80
2022-07-27T09:05:57.809Z,61.50
2022-07-27T09:08:31.037Z,61.20
2022-07-27T09:10:59.596Z,60.20
2022-07-27T09:13:30.975Z,58.60
2022-07-27T09:16:20.285Z,57.70
2022-07-27T09:19:00.104Z,59.30
2022-07-27T09:21:28.330Z,58.50
2022-07-27T09:24:29.340Z,58.00
2022-07-27T09:27:03.994Z,57.10
2022-07-27T09:29:36.398Z,56.90
2022-07-27T09:32:15.962Z,56.10
2022-07-27T09:34:43.820Z,55.30
2022-07-27T09:37:11.134Z,54.60
2022-07-27T09:39:39.132Z,54.10
2022-07-27T09:42:08.183Z,55.20
2022-07-27T09:44:44.409Z,54.00
2022-07-27T09:47:28.166Z,53.50
2022-07-27T09:49:58.788Z,51.50
2022-07-27T09:52:30.269Z,51.90
2022-07-27T09:55:06.612Z,51.40
2022-07-27T09:57:58.588Z,50.20
2022-07-27T10:00:28.345Z,48.80
2022-07-27T10:02:56.113Z,47.90
2022-07-27T10:05:23.690Z,47.90
2022-07-27T10:07:55.230Z,49.90
2022-07-27T10:10:23.981Z,49.80
2022-07-27T10:12:55.005Z,49.00
2022-07-27T10:15:24.896Z,47.60
2022-07-27T10:18:07.688Z,46.20
2022-07-27T10:20:42.228Z,46.60
2022-07-27T10:23:34.789Z,46.40
2022-07-27T10:26:38.317Z,49.40
2022-07-27T10:29:14.190Z,51.60
2022-07-27T10:31:56.880Z,50.60
2022-07-27T10:34:42.431Z,50.20
2022-07-27T10:37:23.960Z,46.80
2022-07-27T10:40:17.163Z,47.10
2022-07-27T10:42:54.284Z,48.80
2022-07-27T10:45:22.427Z,49.60
2022-07-27T10:47:52.928Z,48.10
2022-07-27T10:50:25.829Z,49.30
2022-07-27T10:53:08.329Z,51.90
2022-07-27T10:55:44.478Z,51.10
2022-07-27T10:58:14.106Z,49.50
2022-07-27T11:01:07.372Z,48.30
2022-07-27T11:03:41.535Z,48.30
2022-07-27T11:07:00.234Z,47.20
2022-07-27T11:11:56.406Z,51.30
2022-07-27T11:14:30.064Z,54.10
2022-07-27T11:17:47.231Z,55.10
2022-07-27T11:20:00.861Z,53.10
2022-07-27T11:25:28.247Z,49.80
2022-07-27T11:27:55.147Z,48.10
2022-07-27T11:30:28.870Z,49.50
2022-07-27T11:32:56.621Z,49.70
2022-07-27T11:35:25.259Z,49.10
2022-07-27T11:38:05.732Z,52.20
2022-07-27T11:40:57.943Z,53.00
2022-07-27T11:43:45.173Z,53.60
2022-07-27T11:46:27.966Z,54.00
2022-07-27T11:49:17.771Z,53.70
2022-07-27T11:51:50.304Z,52.40
2022-07-27T11:54:37.772Z,52.10
2022-07-27T11:57:16.224Z,50.10
2022-07-27T11:59:45.685Z,47.30
2022-07-27T12:02:22.625Z,47.90
2022-07-27T12:04:52.701Z,47.50
2022-07-27T12:07:30.295Z,49.10
2022-07-27T12:10:06.684Z,49.40
2022-07-27T12:12:36.339Z,49.10
2022-07-27T12:15:44.822Z,49.00
2022-07-27T12:18:04.024Z,50.10
2022-07-27T12:20:36.447Z,52.20
2022-07-27T12:23:09.092Z,54.00
2022-07-27T12:25:38.836Z,54.50
2022-07-27T12:28:17.712Z,53.80
2022-07-27T12:30:46.277Z,52.70
2022-07-27T12:33:36.905Z,50.20
2022-07-27T12:36:09.005Z,49.40
2022-07-27T12:38:41.286Z,48.70
2022-07-27T12:41:09.159Z,46.70
2022-07-27T12:43:36.825Z,48.50
2022-07-27T12:46:14.201Z,47.80
2022-07-27T12:48:43.318Z,45.30
2022-07-27T12:51:11.096Z,43.50
2022-07-27T12:53:38.829Z,44.30
2022-07-27T12:56:10.087Z,42.60
2022-07-27T12:58:37.575Z,41.50
2022-07-27T13:01:06.057Z,43.50
2022-07-27T13:03:33.366Z,45.50
2022-07-27T13:06:08.042Z,47.40
2022-07-27T13:08:40.634Z,49.00
2022-07-27T13:11:07.677Z,49.10
2022-07-27T13:13:34.617Z,48.00
2022-07-27T13:16:01.626Z,46.70
2022-07-27T13:18:28.673Z,44.90
2022-07-27T13:20:55.619Z,43.50
2022-07-27T13:23:22.740Z,41.50
2022-07-27T13:25:50.021Z,42.10
2022-07-27T13:28:16.934Z,41.20
2022-07-27T13:30:43.850Z,41.50
2022-07-27T13:33:11.026Z,41.00
2022-07-27T13:35:37.950Z,40.20
2022-07-27T13:38:04.928Z,39.20
2022-07-27T13:40:31.861Z,39.00
2022-07-27T13:42:58.762Z,40.20
2022-07-27T13:45:25.760Z,41.60
2022-07-27T13:47:54.467Z,45.60
2022-07-27T13:50:22.447Z,47.20
2022-07-27T13:52:49.871Z,47.50
2022-07-27T13:55:18.299Z,45.10
2022-07-27T13:57:47.196Z,44.70
2022-07-27T14:00:16.596Z,45.20
2022-07-27T14:02:43.874Z,45.70
2022-07-27T14:05:14.512Z,47.10
2022-07-27T14:07:44.044Z,47.80
2022-07-27T14:10:31.216Z,48.00
2022-07-27T14:13:07.835Z,47.50
2022-07-27T14:15:53.056Z,46.00
2022-07-27T14:18:25.649Z,46.10
2022-07-27T14:20:55.277Z,47.10
2022-07-27T14:23:23.182Z,47.90
2022-07-27T14:25:51.273Z,46.40
2022-07-27T14:28:18.766Z,43.80
2022-07-27T14:30:48.212Z,42.20
2022-07-27T14:33:16.235Z,41.80
2022-07-27T14:35:44.021Z,42.90
2022-07-27T14:38:12.091Z,44.10
2022-07-27T14:40:39.914Z,45.70
2022-07-27T14:43:09.329Z,46.10
2022-07-27T14:45:44.617Z,46.80
2022-07-27T14:48:25.347Z,48.20
2022-07-27T14:51:04.173Z,48.30
2022-07-27T14:53:31.213Z,48.00
2022-07-27T14:55:58.357Z,48.40
2022-07-27T14:58:25.488Z,47.80
2022-07-27T15:00:52.904Z,45.90
2022-07-27T15:03:20.922Z,45.30
2022-07-27T15:05:50.190Z,44.00
2022-07-27T15:08:20.334Z,42.90
2022-07-27T15:10:48.696Z,42.40
2022-07-27T15:13:18.053Z,42.60
2022-07-27T15:15:48.283Z,43.20
2022-07-27T15:18:16.030Z,42.80
2022-07-27T15:20:42.909Z,42.60
2022-07-27T15:23:09.883Z,41.70
2022-07-27T15:25:37.214Z,40.00
2022-07-27T15:28:04.658Z,40.70
2022-07-27T15:30:37.866Z,39.20
2022-07-27T15:33:05.898Z,39.00
2022-07-27T15:35:34.975Z,38.90
2022-07-27T15:38:02.086Z,38.80
2022-07-27T15:40:38.439Z,39.80
2022-07-27T15:43:13.066Z,39.60
2022-07-27T15:45:45.444Z,38.90
2022-07-27T15:48:13.558Z,39.30
2022-07-27T15:50:50.194Z,39.70
2022-07-27T15:53:20.815Z,42.40
2022-07-27T15:55:49.924Z,44.70
2022-07-27T15:58:19.864Z,46.70
2022-07-27T16:00:52.853Z,47.90
2022-07-27T16:03:24.120Z,48.90
2022-07-27T16:05:53.954Z,50.20
2022-07-27T16:08:21.199Z,50.70
2022-07-27T16:10:49.045Z,50.40
2022-07-27T16:13:16.834Z,49.80
2022-07-27T16:16:02.690Z,49.40
2022-07-27T16:18:32.959Z,49.20
2022-07-27T16:21:02.473Z,49.30
2022-07-27T16:23:29.720Z,49.30
2022-07-27T16:26:05.134Z,49.30
2022-07-27T16:28:39.771Z,49.30
2022-07-27T16:31:11.179Z,49.30
2022-07-27T16:33:39.018Z,49.30
2022-07-27T16:36:08.270Z,49.30
2022-07-27T16:38:37.555Z,49.50
2022-07-27T16:41:07.630Z,50.00
2022-07-27T16:43:38.297Z,49.70
2022-07-27T16:46:09.913Z,49.10
2022-07-27T16:48:41.732Z,48.00
2022-07-27T16:51:14.886Z,47.30
2022-07-27T16:53:46.296Z,45.70
2022-07-27T16:56:14.479Z,46.10
2022-07-27T16:58:41.852Z,46.60
2022-07-27T17:01:09.924Z,47.80
2022-07-27T17:03:48.910Z,49.00
2022-07-27T17:06:18.427Z,49.20
2022-07-27T17:08:45.599Z,48.40
2022-07-27T17:11:14.565Z,47.80
2022-07-27T17:13:46.194Z,47.60
2022-07-27T17:16:16.300Z,46.80
2022-07-27T17:18:43.704Z,46.70
2022-07-27T17:21:13.539Z,47.10
2022-07-27T17:23:44.908Z,46.80
2022-07-27T17:26:13.766Z,47.00
2022-07-27T17:28:42.268Z,45.90
2022-07-27T17:31:12.661Z,46.10
2022-07-27T17:33:41.397Z,45.80
2022-07-27T17:36:14.684Z,45.50
2022-07-27T17:38:45.288Z,45.30
2022-07-27T17:41:16.412Z,45.10
2022-07-27T17:43:45.097Z,45.70
2022-07-27T17:46:12.873Z,46.00
2022-07-27T17:48:40.601Z,46.40
2022-07-27T17:51:10.237Z,46.90
2022-07-27T17:53:37.849Z,46.70
2022-07-27T17:56:05.581Z,46.80
2022-07-27T17:58:32.525Z,47.00
2022-07-27T18:00:59.618Z,47.20
2022-07-27T18:03:26.993Z,47.20
2022-07-27T18:05:54.093Z,47.80
2022-07-27T18:08:21.178Z,47.80
2022-07-27T18:10:48.506Z,48.10
2022-07-27T18:13:15.635Z,48.50
2022-07-27T18:15:48.625Z,48.70
2022-07-27T18:18:24.889Z,48.90
2022-07-27T18:20:56.266Z,49.10
2022-07-27T18:23:26.218Z,49.80
2022-07-27T18:25:53.633Z,50.10
2022-07-27T18:28:21.155Z,51.20
2022-07-27T18:30:51.635Z,51.90
2022-07-27T18:33:19.571Z,52.50
2022-07-27T18:35:47.561Z,53.20
2022-07-27T18:38:14.812Z,53.80
2022-07-27T18:40:47.092Z,54.20
2022-07-27T18:43:16.614Z,54.40
2022-07-27T18:45:44.038Z,55.00
2022-07-27T18:48:11.320Z,55.20
2022-07-27T18:50:40.803Z,55.50
2022-07-27T18:53:09.034Z,56.10
2022-07-27T18:55:37.020Z,56.40
2022-07-27T18:58:05.418Z,56.60
2022-07-27T19:00:33.576Z,57.10
2022-07-27T19:03:00.691Z,57.30
2022-07-27T19:05:40.295Z,57.30
2022-07-27T19:08:12.864Z,57.70
2022-07-27T19:10:42.837Z,57.90
2022-07-27T19:13:11.894Z,58.10
2022-07-27T19:15:39.742Z,58.50
2022-07-27T19:18:07.859Z,58.80
2022-07-27T19:20:36.552Z,58.90
2022-07-27T19:23:06.043Z,59.40
2022-07-27T19:25:34.038Z,59.70
2022-07-27T19:28:03.012Z,60.20
2022-07-27T19:30:30.240Z,60.50
2022-07-27T19:32:57.566Z,60.70
2022-07-27T19:35:24.528Z,60.80
2022-07-27T19:37:51.487Z,61.20
2022-07-27T19:43:09.423Z,61.60
2022-07-27T19:45:36.847Z,61.50
2022-07-27T19:48:06.725Z,61.80
2022-07-27T19:50:34.300Z,61.70
2022-07-27T19:53:02.126Z,62.10
2022-07-27T19:55:29.091Z,62.20
2022-07-27T19:57:56.229Z,62.60
2022-07-27T20:00:23.325Z,62.50
2022-07-27T20:02:50.384Z,62.80
2022-07-27T20:05:17.699Z,62.80
2022-07-27T20:07:45.731Z,62.70
2022-07-27T20:10:12.784Z,62.80
2022-07-27T20:12:39.833Z,63.10
2022-07-27T20:15:07.886Z,63.00
2022-07-27T20:17:38.630Z,63.30
2022-07-27T20:20:10.645Z,63.40
2022-07-27T20:22:40.236Z,63.80
2022-07-27T20:25:10.721Z,63.90
2022-07-27T20:27:39.000Z,64.20
2022-07-27T20:30:07.733Z,64.20
2022-07-27T20:32:35.489Z,64.30
2022-07-27T20:35:03.782Z,64.60
2022-07-27T20:37:30.698Z,64.80
2022-07-27T20:39:57.634Z,65.50
2022-07-27T20:42:24.554Z,65.10
2022-07-27T20:44:51.658Z,65.00
2022-07-27T20:47:18.985Z,64.80
2022-07-27T20:49:46.044Z,64.60
2022-07-27T20:52:13.010Z,64.50
2022-07-27T20:54:39.954Z,64.30
2022-07-27T20:57:07.528Z,64.20
2022-07-27T20:59:34.771Z,64.30
2022-07-27T21:02:01.797Z,64.50
2022-07-27T21:04:28.858Z,65.20
2022-07-27T21:06:55.903Z,64.60
2022-07-27T21:09:23.166Z,64.50
2022-07-27T21:11:50.186Z,64.50
2022-07-27T21:14:17.274Z,64.50
2022-07-27T21:16:44.229Z,64.60
2022-07-27T21:19:12.188Z,64.40
2022-07-27T21:21:39.592Z,64.40
2022-07-27T21:24:16.993Z,64.40
2022-07-27T21:26:49.294Z,64.40
2022-07-27T21:29:17.434Z,64.60
2022-07-27T21:31:46.674Z,64.60
2022-07-27T21:34:17.405Z,64.70
2022-07-27T21:36:46.375Z,64.70
2022-07-27T21:39:14.418Z,64.80
2022-07-27T21:41:41.727Z,64.90
2022-07-27T21:44:08.658Z,65.20
2022-07-27T21:46:35.783Z,65.30
2022-07-27T21:49:03.339Z,65.40
2022-07-27T21:51:30.383Z,65.70
2022-07-27T21:53:57.365Z,66.00
2022-07-27T21:56:24.524Z,66.30
2022-07-27T21:58:51.661Z,66.50
2022-07-27T22:01:19.038Z,66.70
2022-07-27T22:03:46.646Z,66.80
2022-07-27T22:06:14.116Z,67.00
2022-07-27T22:08:41.386Z,67.20
2022-07-27T22:11:09.575Z,67.50
2022-07-27T22:13:36.517Z,67.60
2022-07-27T22:16:04.175Z,68.50
2022-07-27T22:18:31.587Z,67.90
2022-07-27T22:20:58.883Z,68.30
2022-07-27T22:23:25.939Z,68.50
2022-07-27T22:25:52.924Z,68.90
2022-07-27T22:28:20.604Z,69.20
2022-07-27T22:31:15.556Z,69.50
2022-07-27T22:33:39.746Z,69.70
2022-07-27T22:36:12.272Z,70.20
2022-07-27T22:38:39.736Z,70.60
2022-07-27T22:41:07.847Z,70.70
2022-07-27T22:43:34.851Z,70.70
2022-07-27T22:46:05.241Z,71.10
2022-07-27T22:48:32.697Z,71.50
2022-07-27T22:50:59.739Z,72.00
2022-07-27T22:53:26.732Z,72.20
2022-07-27T22:55:53.878Z,72.50
2022-07-27T22:58:21.593Z,72.70
2022-07-27T23:00:48.873Z,72.80
2022-07-27T23:03:15.907Z,73.00
2022-07-27T23:05:42.934Z,73.30
2022-07-27T23:08:09.970Z,73.60
2022-07-27T23:10:46.985Z,73.90
2022-07-27T23:13:19.572Z,74.20
2022-07-27T23:15:47.607Z,74.40
2022-07-27T23:18:16.578Z,74.80
2022-07-27T23:20:45.074Z,74.90
2022-07-27T23:23:16.268Z,75.30
2022-07-27T23:25:47.058Z,75.60
2022-07-27T23:28:14.975Z,76.10
2022-07-27T23:30:42.875Z,76.20
2022-07-27T23:33:09.979Z,76.40
2022-07-27T23:35:36.920Z,76.70
2022-07-27T23:38:03.970Z,76.90
2022-07-27T23:40:31.003Z,77.20
2022-07-27T23:42:58.060Z,77.50
2022-07-27T23:45:26.307Z,77.60
2022-07-27T23:47:53.171Z,77.80
2022-07-27T23:50:20.104Z,77.80
2022-07-27T23:52:47.803Z,77.90
2022-07-27T23:55:14.754Z,78.10
2022-07-27T23:57:41.714Z,78.10
